Capitan Corbeta CA Curbelo International Airport
SULS : now visible

Airfield :











YOU CAN JOIN US ON...

 
LOGIN :

Register | Disclaimer

   EN    FR    IT 

 









Legend :    VFR   Marginal VFR   IFR   Intensive IFR   Very Intensive IFR
Visi :
Ceiling :
>= 8 km
>= 3000ft
5 to 8 km
1000 to 3000 ft
1500m to 5 km
500 to 1000 ft
800 to 1500m
200 to 500 ft
< 800m
< 200 ft
Symbols :   Thunderstorms  Fog  Heavy snow  Heavy precipitations  Wind > 20 kt






- Airport Elevation : 95 ft
- IATA code : PDP


SULS - Capitan Corbeta CA Curbelo International

CURRENT METAR :
  • 020300Z 25007KT 9999 DZ OVC015 11/10 Q1022

EXPIRED METARs :
  • 020200Z 20008KT 9999 BKN017 11/09 Q1021
  • 020100Z 20010KT 9999 VCSH OVC015 12/09 Q1021

TAF TAF SULS
Valid from the 02 at 00:00 until the 03 at 00:00 UTC


012330Z 0200/0224 18010KT 9999 BKN017 TX13/0218Z TN07/0210Z
PROB30
TEMPO 0200/0204 5000 RA BKN015
PROB30
TEMPO 0205/0211 5000 BR SCT010
BECMG 0206/0210 26005KT
SUEO FIR / South America



MET'MAP, your aeronautical weather chart ! - Copyright ORBIFLY December 2007 - Disclaimer

ORBIFLY MET'MAP TEAM :

Programming & Development : Alexandra Zaïnal
Concept & original design : Baudouin d'Aumeries
Assistance for programming : Marc-Olivier Méhu
Technical & hardware support : Manuel Goepfert

Contact : metmap@orbifly.com




SOURCES & CREDITS :

   NOAA       Earth
Advisory